sensor_id;sensor_type;location;lat;lon;timestamp;temperature;humidity
451;DHT22;212;48.748;9.174;2022-07-29T00:01:16;19.20;1.00
451;DHT22;212;48.748;9.174;2022-07-29T00:03:42;19.40;1.00
451;DHT22;212;48.748;9.174;2022-07-29T00:06:09;19.40;1.00
451;DHT22;212;48.748;9.174;2022-07-29T00:08:36;19.50;1.00
451;DHT22;212;48.748;9.174;2022-07-29T00:11:02;19.60;1.00
451;DHT22;212;48.748;9.174;2022-07-29T00:13:30;19.50;1.00
451;DHT22;212;48.748;9.174;2022-07-29T00:15:58;19.50;1.00
451;DHT22;212;48.748;9.174;2022-07-29T00:18:24;19.50;1.00
451;DHT22;212;48.748;9.174;2022-07-29T00:20:51;19.50;1.00
451;DHT22;212;48.748;9.174;2022-07-29T00:23:18;19.40;1.00
451;DHT22;212;48.748;9.174;2022-07-29T00:25:44;19.40;1.00
451;DHT22;212;48.748;9.174;2022-07-29T00:28:11;19.30;1.00
451;DHT22;212;48.748;9.174;2022-07-29T00:30:37;19.20;1.00
451;DHT22;212;48.748;9.174;2022-07-29T00:33:06;19.20;1.00
451;DHT22;212;48.748;9.174;2022-07-29T00:35:33;19.20;1.00
451;DHT22;212;48.748;9.174;2022-07-29T00:38:12;19.10;1.00
451;DHT22;212;48.748;9.174;2022-07-29T00:40:39;19.10;1.00
451;DHT22;212;48.748;9.174;2022-07-29T00:43:06;19.00;1.00
451;DHT22;212;48.748;9.174;2022-07-29T00:45:33;19.00;1.00
451;DHT22;212;48.748;9.174;2022-07-29T00:47:59;19.00;1.00
451;DHT22;212;48.748;9.174;2022-07-29T00:50:27;19.00;1.00
451;DHT22;212;48.748;9.174;2022-07-29T00:52:54;18.90;1.00
451;DHT22;212;48.748;9.174;2022-07-29T00:55:21;18.80;1.00
451;DHT22;212;48.748;9.174;2022-07-29T00:57:48;18.70;1.00
451;DHT22;212;48.748;9.174;2022-07-29T01:00:17;18.70;1.00
451;DHT22;212;48.748;9.174;2022-07-29T01:02:44;18.70;1.00
451;DHT22;212;48.748;9.174;2022-07-29T01:05:12;18.70;1.00
451;DHT22;212;48.748;9.174;2022-07-29T01:07:41;18.70;1.00
451;DHT22;212;48.748;9.174;2022-07-29T01:10:09;18.70;1.00
451;DHT22;212;48.748;9.174;2022-07-29T01:12:38;18.70;1.00
451;DHT22;212;48.748;9.174;2022-07-29T01:15:08;18.70;1.00
451;DHT22;212;48.748;9.174;2022-07-29T01:17:38;18.80;1.00
451;DHT22;212;48.748;9.174;2022-07-29T01:20:12;18.80;1.00
451;DHT22;212;48.748;9.174;2022-07-29T01:23:01;18.80;1.00
451;DHT22;212;48.748;9.174;2022-07-29T01:26:02;18.80;1.00
451;DHT22;212;48.748;9.174;2022-07-29T01:28:55;18.70;1.00
451;DHT22;212;48.748;9.174;2022-07-29T01:31:28;18.70;1.00
451;DHT22;212;48.748;9.174;2022-07-29T01:34:00;18.60;1.00
451;DHT22;212;48.748;9.174;2022-07-29T01:36:32;18.70;1.00
451;DHT22;212;48.748;9.174;2022-07-29T01:39:05;18.60;1.00
451;DHT22;212;48.748;9.174;2022-07-29T01:41:34;18.60;1.00
451;DHT22;212;48.748;9.174;2022-07-29T01:44:11;18.60;1.00
451;DHT22;212;48.748;9.174;2022-07-29T01:46:57;18.60;1.00
451;DHT22;212;48.748;9.174;2022-07-29T01:49:28;18.60;1.00
451;DHT22;212;48.748;9.174;2022-07-29T01:51:59;18.60;1.00
451;DHT22;212;48.748;9.174;2022-07-29T01:54:32;18.60;1.00
451;DHT22;212;48.748;9.174;2022-07-29T01:57:01;18.60;1.00
451;DHT22;212;48.748;9.174;2022-07-29T01:59:33;18.50;1.00
451;DHT22;212;48.748;9.174;2022-07-29T02:02:01;18.50;1.00
451;DHT22;212;48.748;9.174;2022-07-29T02:04:29;18.50;1.00
451;DHT22;212;48.748;9.174;2022-07-29T02:07:00;18.50;1.00
451;DHT22;212;48.748;9.174;2022-07-29T02:09:28;18.50;1.00
451;DHT22;212;48.748;9.174;2022-07-29T02:11:56;18.50;1.00
451;DHT22;212;48.748;9.174;2022-07-29T02:14:24;18.50;1.00
451;DHT22;212;48.748;9.174;2022-07-29T02:16:56;18.50;1.00
451;DHT22;212;48.748;9.174;2022-07-29T02:19:25;18.50;1.00
451;DHT22;212;48.748;9.174;2022-07-29T02:21:54;18.50;1.00
451;DHT22;212;48.748;9.174;2022-07-29T02:24:23;18.50;1.00
451;DHT22;212;48.748;9.174;2022-07-29T02:26:53;18.50;1.00
451;DHT22;212;48.748;9.174;2022-07-29T02:29:23;18.50;1.00
451;DHT22;212;48.748;9.174;2022-07-29T02:31:51;18.50;1.00
451;DHT22;212;48.748;9.174;2022-07-29T02:34:20;18.40;1.00
451;DHT22;212;48.748;9.174;2022-07-29T02:36:48;18.30;1.00
451;DHT22;212;48.748;9.174;2022-07-29T02:39:17;18.30;1.00
451;DHT22;212;48.748;9.174;2022-07-29T02:41:47;18.20;1.00
451;DHT22;212;48.748;9.174;2022-07-29T02:44:17;18.20;1.00
451;DHT22;212;48.748;9.174;2022-07-29T02:46:49;18.20;1.00
451;DHT22;212;48.748;9.174;2022-07-29T02:49:22;18.20;1.00
451;DHT22;212;48.748;9.174;2022-07-29T02:51:58;18.20;1.00
451;DHT22;212;48.748;9.174;2022-07-29T02:54:31;18.10;1.00
451;DHT22;212;48.748;9.174;2022-07-29T02:57:00;18.20;1.00
451;DHT22;212;48.748;9.174;2022-07-29T02:59:30;18.30;1.00
451;DHT22;212;48.748;9.174;2022-07-29T03:02:02;18.30;1.00
451;DHT22;212;48.748;9.174;2022-07-29T03:04:32;18.30;1.00
451;DHT22;212;48.748;9.174;2022-07-29T03:07:00;18.30;1.00
451;DHT22;212;48.748;9.174;2022-07-29T03:09:29;18.40;1.00
451;DHT22;212;48.748;9.174;2022-07-29T03:11:57;18.40;1.00
451;DHT22;212;48.748;9.174;2022-07-29T03:14:24;18.40;1.00
451;DHT22;212;48.748;9.174;2022-07-29T03:16:51;18.40;1.00
451;DHT22;212;48.748;9.174;2022-07-29T03:19:18;18.30;1.00
451;DHT22;212;48.748;9.174;2022-07-29T03:21:47;18.30;1.00
451;DHT22;212;48.748;9.174;2022-07-29T03:24:28;18.20;1.00
451;DHT22;212;48.748;9.174;2022-07-29T03:26:55;18.20;1.00
451;DHT22;212;48.748;9.174;2022-07-29T03:29:22;18.10;1.00
451;DHT22;212;48.748;9.174;2022-07-29T03:31:49;18.20;1.00
451;DHT22;212;48.748;9.174;2022-07-29T03:34:15;18.20;1.00
451;DHT22;212;48.748;9.174;2022-07-29T03:36:42;18.20;1.00
451;DHT22;212;48.748;9.174;2022-07-29T03:39:12;18.10;1.00
451;DHT22;212;48.748;9.174;2022-07-29T03:41:41;18.20;1.00
451;DHT22;212;48.748;9.174;2022-07-29T03:44:09;18.20;1.00
451;DHT22;212;48.748;9.174;2022-07-29T03:46:37;18.10;1.00
451;DHT22;212;48.748;9.174;2022-07-29T03:49:06;18.20;1.00
451;DHT22;212;48.748;9.174;2022-07-29T03:51:33;18.30;1.00
451;DHT22;212;48.748;9.174;2022-07-29T03:54:01;18.30;1.00
451;DHT22;212;48.748;9.174;2022-07-29T03:56:29;18.30;1.00
451;DHT22;212;48.748;9.174;2022-07-29T03:58:58;18.30;1.00
451;DHT22;212;48.748;9.174;2022-07-29T04:01:27;18.30;1.00
451;DHT22;212;48.748;9.174;2022-07-29T04:03:55;18.30;1.00
451;DHT22;212;48.748;9.174;2022-07-29T04:06:21;18.40;1.00
451;DHT22;212;48.748;9.174;2022-07-29T04:08:48;18.40;1.00
451;DHT22;212;48.748;9.174;2022-07-29T04:11:15;18.30;1.00
451;DHT22;212;48.748;9.174;2022-07-29T04:13:43;18.40;1.00
451;DHT22;212;48.748;9.174;2022-07-29T04:16:09;18.50;1.00
451;DHT22;212;48.748;9.174;2022-07-29T04:18:36;18.50;1.00
451;DHT22;212;48.748;9.174;2022-07-29T04:21:03;18.40;1.00
451;DHT22;212;48.748;9.174;2022-07-29T04:23:30;18.40;1.00
451;DHT22;212;48.748;9.174;2022-07-29T04:25:58;18.40;1.00
451;DHT22;212;48.748;9.174;2022-07-29T04:28:26;18.50;1.00
451;DHT22;212;48.748;9.174;2022-07-29T04:30:54;18.60;1.00
451;DHT22;212;48.748;9.174;2022-07-29T04:33:21;18.60;1.00
451;DHT22;212;48.748;9.174;2022-07-29T04:35:47;18.60;1.00
451;DHT22;212;48.748;9.174;2022-07-29T04:38:14;18.70;1.00
451;DHT22;212;48.748;9.174;2022-07-29T04:40:40;18.80;1.00
451;DHT22;212;48.748;9.174;2022-07-29T04:43:07;18.90;1.00
451;DHT22;212;48.748;9.174;2022-07-29T04:45:34;19.00;1.00
451;DHT22;212;48.748;9.174;2022-07-29T04:48:02;19.00;1.00
451;DHT22;212;48.748;9.174;2022-07-29T04:50:29;19.10;1.00
451;DHT22;212;48.748;9.174;2022-07-29T04:52:56;19.10;1.00
451;DHT22;212;48.748;9.174;2022-07-29T04:55:22;19.30;1.00
451;DHT22;212;48.748;9.174;2022-07-29T04:57:50;19.40;1.00
451;DHT22;212;48.748;9.174;2022-07-29T05:00:17;19.50;1.00
451;DHT22;212;48.748;9.174;2022-07-29T05:02:43;19.60;1.00
451;DHT22;212;48.748;9.174;2022-07-29T05:05:11;19.70;1.00
451;DHT22;212;48.748;9.174;2022-07-29T05:07:38;19.80;1.00
451;DHT22;212;48.748;9.174;2022-07-29T05:10:05;19.90;1.00
451;DHT22;212;48.748;9.174;2022-07-29T05:12:32;20.00;1.00
451;DHT22;212;48.748;9.174;2022-07-29T05:14:59;20.10;1.00
451;DHT22;212;48.748;9.174;2022-07-29T05:17:26;20.20;1.00
451;DHT22;212;48.748;9.174;2022-07-29T05:19:52;20.20;1.00
451;DHT22;212;48.748;9.174;2022-07-29T05:22:21;20.20;1.00
451;DHT22;212;48.748;9.174;2022-07-29T05:24:47;20.20;1.00
451;DHT22;212;48.748;9.174;2022-07-29T05:27:14;20.30;1.00
451;DHT22;212;48.748;9.174;2022-07-29T05:29:41;20.40;1.00
451;DHT22;212;48.748;9.174;2022-07-29T05:32:08;20.40;1.00
451;DHT22;212;48.748;9.174;2022-07-29T05:34:34;20.40;1.00
451;DHT22;212;48.748;9.174;2022-07-29T05:37:01;20.70;1.00
451;DHT22;212;48.748;9.174;2022-07-29T05:39:29;20.70;1.00
451;DHT22;212;48.748;9.174;2022-07-29T05:41:56;21.00;1.00
451;DHT22;212;48.748;9.174;2022-07-29T05:44:23;20.70;1.00
451;DHT22;212;48.748;9.174;2022-07-29T05:46:49;20.60;1.00
451;DHT22;212;48.748;9.174;2022-07-29T05:49:16;20.50;1.00
451;DHT22;212;48.748;9.174;2022-07-29T05:51:43;20.60;1.00
451;DHT22;212;48.748;9.174;2022-07-29T05:54:10;20.90;1.00
451;DHT22;212;48.748;9.174;2022-07-29T05:56:38;20.90;1.00
451;DHT22;212;48.748;9.174;2022-07-29T05:59:05;20.80;1.00
451;DHT22;212;48.748;9.174;2022-07-29T06:01:31;20.80;1.00
451;DHT22;212;48.748;9.174;2022-07-29T06:03:58;21.00;1.00
451;DHT22;212;48.748;9.174;2022-07-29T06:06:25;21.40;1.00
451;DHT22;212;48.748;9.174;2022-07-29T06:08:51;22.00;1.00
451;DHT22;212;48.748;9.174;2022-07-29T06:11:18;22.50;1.00
451;DHT22;212;48.748;9.174;2022-07-29T06:13:46;23.20;1.00
451;DHT22;212;48.748;9.174;2022-07-29T06:16:13;23.40;1.00
451;DHT22;212;48.748;9.174;2022-07-29T06:18:39;23.60;1.00
451;DHT22;212;48.748;9.174;2022-07-29T06:21:08;23.50;1.00
451;DHT22;212;48.748;9.174;2022-07-29T06:23:36;22.90;1.00
451;DHT22;212;48.748;9.174;2022-07-29T06:26:03;22.90;1.00
451;DHT22;212;48.748;9.174;2022-07-29T06:28:30;22.90;1.00
451;DHT22;212;48.748;9.174;2022-07-29T06:30:58;23.40;1.00
451;DHT22;212;48.748;9.174;2022-07-29T06:33:25;24.40;1.00
451;DHT22;212;48.748;9.174;2022-07-29T06:35:52;25.20;1.00
451;DHT22;212;48.748;9.174;2022-07-29T06:38:18;25.60;1.00
451;DHT22;212;48.748;9.174;2022-07-29T06:40:45;25.00;1.00
451;DHT22;212;48.748;9.174;2022-07-29T06:43:29;25.10;1.00
451;DHT22;212;48.748;9.174;2022-07-29T06:45:59;25.50;1.00
451;DHT22;212;48.748;9.174;2022-07-29T06:48:26;26.60;1.00
451;DHT22;212;48.748;9.174;2022-07-29T06:50:53;27.30;1.00
451;DHT22;212;48.748;9.174;2022-07-29T06:53:20;27.90;1.00
451;DHT22;212;48.748;9.174;2022-07-29T06:55:47;26.90;1.00
451;DHT22;212;48.748;9.174;2022-07-29T06:58:13;26.90;1.00
451;DHT22;212;48.748;9.174;2022-07-29T07:00:41;26.30;1.00
451;DHT22;212;48.748;9.174;2022-07-29T07:03:09;27.00;1.00
451;DHT22;212;48.748;9.174;2022-07-29T07:05:36;28.20;1.00
451;DHT22;212;48.748;9.174;2022-07-29T07:08:03;29.80;1.00
451;DHT22;212;48.748;9.174;2022-07-29T07:10:30;30.00;1.00
451;DHT22;212;48.748;9.174;2022-07-29T07:12:57;30.30;1.00
451;DHT22;212;48.748;9.174;2022-07-29T07:15:23;30.50;1.00
451;DHT22;212;48.748;9.174;2022-07-29T07:17:50;29.70;1.00
451;DHT22;212;48.748;9.174;2022-07-29T07:20:19;30.80;1.00
451;DHT22;212;48.748;9.174;2022-07-29T07:22:46;32.00;1.00
451;DHT22;212;48.748;9.174;2022-07-29T07:25:13;32.50;1.00
451;DHT22;212;48.748;9.174;2022-07-29T07:27:39;32.50;1.00
451;DHT22;212;48.748;9.174;2022-07-29T07:30:07;32.60;1.00
451;DHT22;212;48.748;9.174;2022-07-29T07:32:34;32.00;1.00
451;DHT22;212;48.748;9.174;2022-07-29T07:35:01;31.50;1.00
451;DHT22;212;48.748;9.174;2022-07-29T07:37:29;31.30;1.00
451;DHT22;212;48.748;9.174;2022-07-29T07:39:56;31.80;1.00
451;DHT22;212;48.748;9.174;2022-07-29T07:42:23;30.80;1.00
451;DHT22;212;48.748;9.174;2022-07-29T07:44:50;30.50;1.00
451;DHT22;212;48.748;9.174;2022-07-29T07:47:17;31.70;1.00
451;DHT22;212;48.748;9.174;2022-07-29T07:49:45;33.10;1.00
451;DHT22;212;48.748;9.174;2022-07-29T07:52:12;34.30;1.00
451;DHT22;212;48.748;9.174;2022-07-29T07:54:40;34.80;1.00
451;DHT22;212;48.748;9.174;2022-07-29T07:57:08;34.30;1.00
451;DHT22;212;48.748;9.174;2022-07-29T07:59:35;33.20;1.00
451;DHT22;212;48.748;9.174;2022-07-29T08:02:01;32.60;1.00
451;DHT22;212;48.748;9.174;2022-07-29T08:04:28;32.80;1.00
451;DHT22;212;48.748;9.174;2022-07-29T08:06:55;32.80;1.00
451;DHT22;212;48.748;9.174;2022-07-29T08:09:23;33.10;1.00
451;DHT22;212;48.748;9.174;2022-07-29T08:11:51;35.00;1.00
451;DHT22;212;48.748;9.174;2022-07-29T08:14:18;36.20;1.00
451;DHT22;212;48.748;9.174;2022-07-29T08:16:45;37.30;1.00
451;DHT22;212;48.748;9.174;2022-07-29T08:19:12;38.20;1.00
451;DHT22;212;48.748;9.174;2022-07-29T08:21:39;38.10;1.00
451;DHT22;212;48.748;9.174;2022-07-29T08:24:06;37.90;1.00
451;DHT22;212;48.748;9.174;2022-07-29T08:26:52;37.70;1.00
451;DHT22;212;48.748;9.174;2022-07-29T08:29:18;38.20;1.00
451;DHT22;212;48.748;9.174;2022-07-29T08:31:45;39.00;1.00
451;DHT22;212;48.748;9.174;2022-07-29T08:34:11;39.10;1.00
451;DHT22;212;48.748;9.174;2022-07-29T08:36:38;37.80;1.00
451;DHT22;212;48.748;9.174;2022-07-29T08:39:05;38.10;1.00
451;DHT22;212;48.748;9.174;2022-07-29T08:41:32;38.50;1.00
451;DHT22;212;48.748;9.174;2022-07-29T08:43:59;38.10;1.00
451;DHT22;212;48.748;9.174;2022-07-29T08:46:26;37.50;1.00
451;DHT22;212;48.748;9.174;2022-07-29T08:48:53;36.30;1.00
451;DHT22;212;48.748;9.174;2022-07-29T08:51:21;35.60;1.00
451;DHT22;212;48.748;9.174;2022-07-29T08:53:50;35.30;1.00
451;DHT22;212;48.748;9.174;2022-07-29T08:56:17;34.90;1.00
451;DHT22;212;48.748;9.174;2022-07-29T08:58:45;34.60;1.00
451;DHT22;212;48.748;9.174;2022-07-29T09:01:16;35.60;1.00
451;DHT22;212;48.748;9.174;2022-07-29T09:03:44;37.30;1.00
451;DHT22;212;48.748;9.174;2022-07-29T09:06:13;38.10;1.00
451;DHT22;212;48.748;9.174;2022-07-29T09:08:41;37.60;1.00
451;DHT22;212;48.748;9.174;2022-07-29T09:11:08;38.60;1.00
451;DHT22;212;48.748;9.174;2022-07-29T09:13:35;38.90;1.00
451;DHT22;212;48.748;9.174;2022-07-29T09:16:03;37.80;1.00
451;DHT22;212;48.748;9.174;2022-07-29T09:18:36;38.70;1.00
451;DHT22;212;48.748;9.174;2022-07-29T09:21:03;40.30;1.00
451;DHT22;212;48.748;9.174;2022-07-29T09:24:06;40.50;1.00
451;DHT22;212;48.748;9.174;2022-07-29T09:26:34;40.50;1.00
451;DHT22;212;48.748;9.174;2022-07-29T09:29:08;39.00;1.00
451;DHT22;212;48.748;9.174;2022-07-29T09:31:38;37.50;1.00
451;DHT22;212;48.748;9.174;2022-07-29T09:34:07;38.40;1.00
451;DHT22;212;48.748;9.174;2022-07-29T09:36:41;38.80;1.00
451;DHT22;212;48.748;9.174;2022-07-29T09:39:08;39.60;1.00
451;DHT22;212;48.748;9.174;2022-07-29T09:41:45;39.20;1.00
451;DHT22;212;48.748;9.174;2022-07-29T09:44:12;39.40;1.00
451;DHT22;212;48.748;9.174;2022-07-29T09:46:40;38.70;1.00
451;DHT22;212;48.748;9.174;2022-07-29T09:49:11;37.30;1.00
451;DHT22;212;48.748;9.174;2022-07-29T09:51:39;36.00;1.00
451;DHT22;212;48.748;9.174;2022-07-29T09:54:22;34.30;1.00
451;DHT22;212;48.748;9.174;2022-07-29T09:56:49;34.40;1.00
451;DHT22;212;48.748;9.174;2022-07-29T09:59:16;33.80;1.00
451;DHT22;212;48.748;9.174;2022-07-29T10:01:43;32.90;1.00
451;DHT22;212;48.748;9.174;2022-07-29T10:04:11;31.80;1.00
451;DHT22;212;48.748;9.174;2022-07-29T10:06:55;31.30;1.00
451;DHT22;212;48.748;9.174;2022-07-29T10:09:23;31.70;1.00
451;DHT22;212;48.748;9.174;2022-07-29T10:12:06;32.10;1.00
451;DHT22;212;48.748;9.174;2022-07-29T10:14:35;31.70;1.00
451;DHT22;212;48.748;9.174;2022-07-29T10:17:03;31.80;1.00
451;DHT22;212;48.748;9.174;2022-07-29T10:19:32;31.80;1.00
451;DHT22;212;48.748;9.174;2022-07-29T10:22:00;31.70;1.00
451;DHT22;212;48.748;9.174;2022-07-29T10:24:30;31.40;1.00
451;DHT22;212;48.748;9.174;2022-07-29T10:26:58;31.20;1.00
451;DHT22;212;48.748;9.174;2022-07-29T10:29:25;31.50;1.00
451;DHT22;212;48.748;9.174;2022-07-29T10:32:02;31.20;1.00
451;DHT22;212;48.748;9.174;2022-07-29T10:34:50;30.30;1.00
451;DHT22;212;48.748;9.174;2022-07-29T10:37:22;29.90;1.00
451;DHT22;212;48.748;9.174;2022-07-29T10:39:57;28.90;1.00
451;DHT22;212;48.748;9.174;2022-07-29T10:42:29;28.30;1.00
451;DHT22;212;48.748;9.174;2022-07-29T10:44:56;28.00;1.00
451;DHT22;212;48.748;9.174;2022-07-29T10:47:24;27.70;1.00
451;DHT22;212;48.748;9.174;2022-07-29T10:49:59;27.00;1.00
451;DHT22;212;48.748;9.174;2022-07-29T10:52:52;26.50;1.00
451;DHT22;212;48.748;9.174;2022-07-29T10:55:35;26.10;1.00
451;DHT22;212;48.748;9.174;2022-07-29T10:58:15;25.40;1.00
451;DHT22;212;48.748;9.174;2022-07-29T11:00:42;24.30;1.00
451;DHT22;212;48.748;9.174;2022-07-29T11:03:09;22.80;1.00
451;DHT22;212;48.748;9.174;2022-07-29T11:05:53;21.40;1.00
451;DHT22;212;48.748;9.174;2022-07-29T11:08:22;20.40;1.00
451;DHT22;212;48.748;9.174;2022-07-29T11:10:52;19.90;1.00
451;DHT22;212;48.748;9.174;2022-07-29T11:13:45;19.70;1.00
451;DHT22;212;48.748;9.174;2022-07-29T11:16:13;19.50;1.00
451;DHT22;212;48.748;9.174;2022-07-29T11:21:43;19.90;1.00
451;DHT22;212;48.748;9.174;2022-07-29T11:24:12;19.90;1.00
451;DHT22;212;48.748;9.174;2022-07-29T11:26:39;19.90;1.00
451;DHT22;212;48.748;9.174;2022-07-29T11:29:17;19.90;1.00
451;DHT22;212;48.748;9.174;2022-07-29T11:31:46;19.90;1.00
451;DHT22;212;48.748;9.174;2022-07-29T11:34:23;20.00;1.00
451;DHT22;212;48.748;9.174;2022-07-29T11:37:17;20.10;1.00
451;DHT22;212;48.748;9.174;2022-07-29T11:39:45;20.20;1.00
451;DHT22;212;48.748;9.174;2022-07-29T11:42:38;20.40;1.00
451;DHT22;212;48.748;9.174;2022-07-29T11:45:07;20.60;1.00
451;DHT22;212;48.748;9.174;2022-07-29T11:47:35;20.80;1.00
451;DHT22;212;48.748;9.174;2022-07-29T11:50:05;20.60;1.00
451;DHT22;212;48.748;9.174;2022-07-29T11:52:35;20.30;1.00
451;DHT22;212;48.748;9.174;2022-07-29T11:55:09;20.10;1.00
451;DHT22;212;48.748;9.174;2022-07-29T11:57:36;20.00;1.00
451;DHT22;212;48.748;9.174;2022-07-29T12:00:05;19.80;1.00
451;DHT22;212;48.748;9.174;2022-07-29T12:02:40;19.70;1.00
451;DHT22;212;48.748;9.174;2022-07-29T12:05:08;19.70;1.00
451;DHT22;212;48.748;9.174;2022-07-29T12:07:38;19.80;1.00
451;DHT22;212;48.748;9.174;2022-07-29T12:10:06;19.80;1.00
451;DHT22;212;48.748;9.174;2022-07-29T12:12:34;19.80;1.00
451;DHT22;212;48.748;9.174;2022-07-29T12:15:11;19.90;1.00
451;DHT22;212;48.748;9.174;2022-07-29T12:17:38;20.10;1.00
451;DHT22;212;48.748;9.174;2022-07-29T12:20:06;20.30;1.00
451;DHT22;212;48.748;9.174;2022-07-29T12:22:34;20.50;1.00
451;DHT22;212;48.748;9.174;2022-07-29T12:25:06;20.80;1.00
451;DHT22;212;48.748;9.174;2022-07-29T12:27:34;21.00;1.00
451;DHT22;212;48.748;9.174;2022-07-29T12:30:03;21.30;1.00
451;DHT22;212;48.748;9.174;2022-07-29T12:32:32;21.50;1.00
451;DHT22;212;48.748;9.174;2022-07-29T12:34:59;21.60;1.00
451;DHT22;212;48.748;9.174;2022-07-29T12:37:26;21.60;1.00
451;DHT22;212;48.748;9.174;2022-07-29T12:39:53;21.60;1.00
451;DHT22;212;48.748;9.174;2022-07-29T12:42:21;21.40;1.00
451;DHT22;212;48.748;9.174;2022-07-29T12:44:49;21.30;1.00
451;DHT22;212;48.748;9.174;2022-07-29T12:47:17;21.40;1.00
451;DHT22;212;48.748;9.174;2022-07-29T12:49:45;21.30;1.00
451;DHT22;212;48.748;9.174;2022-07-29T12:52:25;21.10;1.00
451;DHT22;212;48.748;9.174;2022-07-29T12:54:52;20.90;1.00
451;DHT22;212;48.748;9.174;2022-07-29T12:57:20;20.90;1.00
451;DHT22;212;48.748;9.174;2022-07-29T13:00:05;20.80;1.00
451;DHT22;212;48.748;9.174;2022-07-29T13:02:35;20.80;1.00
451;DHT22;212;48.748;9.174;2022-07-29T13:05:02;21.00;1.00
451;DHT22;212;48.748;9.174;2022-07-29T13:07:30;21.10;1.00
451;DHT22;212;48.748;9.174;2022-07-29T13:10:11;21.10;1.00
451;DHT22;212;48.748;9.174;2022-07-29T13:12:39;20.90;1.00
451;DHT22;212;48.748;9.174;2022-07-29T13:15:14;20.90;1.00
451;DHT22;212;48.748;9.174;2022-07-29T13:17:42;20.90;1.00
451;DHT22;212;48.748;9.174;2022-07-29T13:20:11;20.70;1.00
451;DHT22;212;48.748;9.174;2022-07-29T13:22:39;20.70;1.00
451;DHT22;212;48.748;9.174;2022-07-29T13:25:09;20.80;1.00
451;DHT22;212;48.748;9.174;2022-07-29T13:27:37;20.80;1.00
451;DHT22;212;48.748;9.174;2022-07-29T13:30:08;20.80;1.00
451;DHT22;212;48.748;9.174;2022-07-29T13:32:36;20.80;1.00
451;DHT22;212;48.748;9.174;2022-07-29T13:35:05;20.90;1.00
451;DHT22;212;48.748;9.174;2022-07-29T13:37:32;21.10;1.00
451;DHT22;212;48.748;9.174;2022-07-29T13:40:00;21.30;1.00
451;DHT22;212;48.748;9.174;2022-07-29T13:42:28;21.40;1.00
451;DHT22;212;48.748;9.174;2022-07-29T13:44:55;21.50;1.00
451;DHT22;212;48.748;9.174;2022-07-29T13:47:23;21.60;1.00
451;DHT22;212;48.748;9.174;2022-07-29T13:49:50;21.60;1.00
451;DHT22;212;48.748;9.174;2022-07-29T13:52:18;21.40;1.00
451;DHT22;212;48.748;9.174;2022-07-29T13:54:45;21.60;1.00
451;DHT22;212;48.748;9.174;2022-07-29T13:57:12;21.70;1.00
451;DHT22;212;48.748;9.174;2022-07-29T13:59:40;22.00;1.00
451;DHT22;212;48.748;9.174;2022-07-29T14:02:08;22.30;1.00
451;DHT22;212;48.748;9.174;2022-07-29T14:04:36;22.60;1.00
451;DHT22;212;48.748;9.174;2022-07-29T14:07:03;22.80;1.00
451;DHT22;212;48.748;9.174;2022-07-29T14:09:30;22.70;1.00
451;DHT22;212;48.748;9.174;2022-07-29T14:11:57;22.70;1.00
451;DHT22;212;48.748;9.174;2022-07-29T14:14:23;22.90;1.00
451;DHT22;212;48.748;9.174;2022-07-29T14:16:50;23.10;1.00
451;DHT22;212;48.748;9.174;2022-07-29T14:19:17;23.20;1.00
451;DHT22;212;48.748;9.174;2022-07-29T14:21:45;23.20;1.00
451;DHT22;212;48.748;9.174;2022-07-29T14:24:11;23.30;1.00
451;DHT22;212;48.748;9.174;2022-07-29T14:26:38;23.30;1.00
451;DHT22;212;48.748;9.174;2022-07-29T14:29:05;23.80;1.00
451;DHT22;212;48.748;9.174;2022-07-29T14:31:32;24.10;1.00
451;DHT22;212;48.748;9.174;2022-07-29T14:33:59;24.30;1.00
451;DHT22;212;48.748;9.174;2022-07-29T14:36:26;24.50;1.00
451;DHT22;212;48.748;9.174;2022-07-29T14:38:54;24.60;1.00
451;DHT22;212;48.748;9.174;2022-07-29T14:41:20;24.70;1.00
451;DHT22;212;48.748;9.174;2022-07-29T14:43:47;24.70;1.00
451;DHT22;212;48.748;9.174;2022-07-29T14:46:14;24.70;1.00
451;DHT22;212;48.748;9.174;2022-07-29T14:48:40;24.50;1.00
451;DHT22;212;48.748;9.174;2022-07-29T14:51:07;24.50;1.00
451;DHT22;212;48.748;9.174;2022-07-29T14:53:34;24.50;1.00
451;DHT22;212;48.748;9.174;2022-07-29T14:56:02;24.60;1.00
451;DHT22;212;48.748;9.174;2022-07-29T14:58:29;24.60;1.00
451;DHT22;212;48.748;9.174;2022-07-29T15:00:55;24.60;1.00
451;DHT22;212;48.748;9.174;2022-07-29T15:03:22;24.60;1.00
451;DHT22;212;48.748;9.174;2022-07-29T15:05:49;24.50;1.00
451;DHT22;212;48.748;9.174;2022-07-29T15:08:16;24.50;1.00
451;DHT22;212;48.748;9.174;2022-07-29T15:10:43;24.40;1.00
451;DHT22;212;48.748;9.174;2022-07-29T15:13:11;24.50;1.00
451;DHT22;212;48.748;9.174;2022-07-29T15:15:38;24.50;1.00
451;DHT22;212;48.748;9.174;2022-07-29T15:18:06;24.40;1.00
451;DHT22;212;48.748;9.174;2022-07-29T15:20:34;24.40;1.00
451;DHT22;212;48.748;9.174;2022-07-29T15:23:01;24.50;1.00
451;DHT22;212;48.748;9.174;2022-07-29T15:25:28;24.60;1.00
451;DHT22;212;48.748;9.174;2022-07-29T15:27:54;24.70;1.00
451;DHT22;212;48.748;9.174;2022-07-29T15:30:23;24.60;1.00
451;DHT22;212;48.748;9.174;2022-07-29T15:32:49;24.40;1.00
451;DHT22;212;48.748;9.174;2022-07-29T15:35:16;24.40;1.00
451;DHT22;212;48.748;9.174;2022-07-29T15:37:43;24.30;1.00
451;DHT22;212;48.748;9.174;2022-07-29T15:40:10;24.30;1.00
451;DHT22;212;48.748;9.174;2022-07-29T15:42:37;24.30;1.00
451;DHT22;212;48.748;9.174;2022-07-29T15:45:05;24.20;1.00
451;DHT22;212;48.748;9.174;2022-07-29T15:47:34;24.10;1.00
451;DHT22;212;48.748;9.174;2022-07-29T15:50:01;24.00;1.00
451;DHT22;212;48.748;9.174;2022-07-29T15:52:28;24.10;1.00
451;DHT22;212;48.748;9.174;2022-07-29T15:54:55;24.20;1.00
451;DHT22;212;48.748;9.174;2022-07-29T15:57:23;24.30;1.00
451;DHT22;212;48.748;9.174;2022-07-29T15:59:50;24.40;1.00
451;DHT22;212;48.748;9.174;2022-07-29T16:02:16;24.30;1.00
451;DHT22;212;48.748;9.174;2022-07-29T16:04:44;24.50;1.00
451;DHT22;212;48.748;9.174;2022-07-29T16:07:11;24.60;1.00
451;DHT22;212;48.748;9.174;2022-07-29T16:09:38;24.50;1.00
451;DHT22;212;48.748;9.174;2022-07-29T16:12:05;24.30;1.00
451;DHT22;212;48.748;9.174;2022-07-29T16:14:32;24.10;1.00
451;DHT22;212;48.748;9.174;2022-07-29T16:16:58;23.90;1.00
451;DHT22;212;48.748;9.174;2022-07-29T16:19:27;23.80;1.00
451;DHT22;212;48.748;9.174;2022-07-29T16:21:55;23.70;1.00
451;DHT22;212;48.748;9.174;2022-07-29T16:24:22;23.80;1.00
451;DHT22;212;48.748;9.174;2022-07-29T16:26:54;23.70;1.00
451;DHT22;212;48.748;9.174;2022-07-29T16:29:20;23.70;1.00
451;DHT22;212;48.748;9.174;2022-07-29T16:31:47;23.70;1.00
451;DHT22;212;48.748;9.174;2022-07-29T16:34:14;23.80;1.00
451;DHT22;212;48.748;9.174;2022-07-29T16:36:40;23.70;1.00
451;DHT22;212;48.748;9.174;2022-07-29T16:39:08;23.50;1.00
451;DHT22;212;48.748;9.174;2022-07-29T16:41:37;23.50;1.00
451;DHT22;212;48.748;9.174;2022-07-29T16:44:04;23.60;1.00
451;DHT22;212;48.748;9.174;2022-07-29T16:46:30;23.50;1.00
451;DHT22;212;48.748;9.174;2022-07-29T16:49:01;23.30;1.00
451;DHT22;212;48.748;9.174;2022-07-29T16:51:28;23.50;1.00
451;DHT22;212;48.748;9.174;2022-07-29T16:53:55;23.50;1.00
451;DHT22;212;48.748;9.174;2022-07-29T16:56:23;23.30;1.00
451;DHT22;212;48.748;9.174;2022-07-29T16:58:50;23.30;1.00
451;DHT22;212;48.748;9.174;2022-07-29T17:01:16;23.40;1.00
451;DHT22;212;48.748;9.174;2022-07-29T17:03:44;23.40;1.00
451;DHT22;212;48.748;9.174;2022-07-29T17:06:24;23.40;1.00